createdAt,value
2023-05-04T00:00:06.250Z,83.43
2023-05-04T00:02:03.692Z,83.43
2023-05-04T00:02:33.064Z,83.82
2023-05-04T00:04:59.662Z,84.56
2023-05-04T00:07:03.676Z,84.56
2023-05-04T00:07:26.286Z,85.23
2023-05-04T00:09:52.668Z,85.00
2023-05-04T00:12:03.659Z,85.00
2023-05-04T00:12:19.085Z,84.66
2023-05-04T00:14:45.484Z,84.38
2023-05-04T00:17:03.621Z,84.38
2023-05-04T00:17:13.969Z,84.48
2023-05-04T00:19:42.281Z,84.41
2023-05-04T00:22:03.635Z,84.41
2023-05-04T00:22:09.104Z,84.06
2023-05-04T00:24:35.633Z,83.40
2023-05-04T00:27:02.438Z,83.60
2023-05-04T00:27:03.629Z,83.60
2023-05-04T00:29:29.237Z,83.86
2023-05-04T00:31:56.162Z,85.06
2023-05-04T00:32:03.810Z,85.06
2023-05-04T00:34:22.900Z,85.66
2023-05-04T00:36:49.615Z,85.40
2023-05-04T00:37:03.660Z,85.40
2023-05-04T00:39:16.346Z,84.85
2023-05-04T00:41:42.726Z,85.04
2023-05-04T00:42:03.658Z,85.04
2023-05-04T00:44:09.273Z,85.50
2023-05-04T00:46:36.929Z,85.09
2023-05-04T00:47:03.714Z,85.09
2023-05-04T00:49:03.901Z,84.53
2023-05-04T00:51:30.780Z,85.30
2023-05-04T00:52:03.660Z,85.30
2023-05-04T00:53:58.153Z,85.46
2023-05-04T00:56:25.237Z,84.88
2023-05-04T00:57:03.653Z,84.88
2023-05-04T00:58:54.366Z,85.12
2023-05-04T01:01:22.263Z,86.45
2023-05-04T01:02:03.645Z,86.45
2023-05-04T01:03:53.729Z,85.92
2023-05-04T01:06:45.266Z,85.93
2023-05-04T01:07:03.690Z,85.93
2023-05-04T01:09:22.492Z,86.32
2023-05-04T01:11:58.151Z,86.66
2023-05-04T01:12:03.669Z,86.66
2023-05-04T01:14:25.500Z,87.03
2023-05-04T01:16:57.884Z,87.81
2023-05-04T01:17:03.817Z,87.81
2023-05-04T01:19:24.934Z,87.47
2023-05-04T01:21:51.318Z,88.31
2023-05-04T01:22:03.640Z,88.31
2023-05-04T01:24:17.756Z,88.19
2023-05-04T01:26:46.938Z,88.53
2023-05-04T01:27:03.676Z,88.53
2023-05-04T01:29:19.443Z,87.47
2023-05-04T01:31:46.717Z,88.31
2023-05-04T01:32:03.840Z,88.31
2023-05-04T01:34:14.301Z,89.70
2023-05-04T01:36:41.679Z,89.37
2023-05-04T01:37:03.660Z,89.37
2023-05-04T01:39:08.470Z,89.35
2023-05-04T01:41:36.098Z,90.17
2023-05-04T01:42:03.688Z,90.17
2023-05-04T01:44:03.773Z,89.19
2023-05-04T01:46:30.313Z,89.62
2023-05-04T01:47:03.691Z,89.62
2023-05-04T01:48:56.843Z,89.79
2023-05-04T01:51:23.211Z,90.53
2023-05-04T01:52:03.743Z,90.53
2023-05-04T01:53:49.599Z,90.84
2023-05-04T01:56:15.962Z,91.55
2023-05-04T01:57:03.680Z,91.55
2023-05-04T01:58:42.341Z,91.44
2023-05-04T02:01:09.288Z,91.60
2023-05-04T02:02:03.820Z,91.60
2023-05-04T02:03:35.789Z,91.27
2023-05-04T02:06:02.231Z,92.70
2023-05-04T02:07:03.660Z,92.70
2023-05-04T02:08:28.697Z,93.08
2023-05-04T02:10:55.020Z,92.71
2023-05-04T02:12:03.673Z,92.71
2023-05-04T02:13:22.145Z,94.39
2023-05-04T02:15:48.627Z,95.24
2023-05-04T02:17:03.676Z,95.24
2023-05-04T02:18:15.006Z,95.33
2023-05-04T02:20:41.386Z,96.33
2023-05-04T02:22:03.692Z,96.33
2023-05-04T02:23:07.759Z,97.42
2023-05-04T02:25:34.207Z,98.27
2023-05-04T02:27:03.649Z,98.27
2023-05-04T02:28:00.856Z,98.38
2023-05-04T02:30:27.233Z,99.09
2023-05-04T02:32:03.795Z,99.09
2023-05-04T02:32:53.647Z,98.61
2023-05-04T02:35:20.337Z,99.35
2023-05-04T02:37:05.840Z,99.35
2023-05-04T02:37:46.830Z,98.51
2023-05-04T02:40:13.560Z,99.91
2023-05-04T02:42:03.723Z,99.91
2023-05-04T02:42:39.945Z,99.62
2023-05-04T02:45:07.620Z,98.80
2023-05-04T02:47:03.686Z,98.80
2023-05-04T02:47:34.085Z,98.91
2023-05-04T02:50:00.746Z,97.62
2023-05-04T02:52:03.789Z,97.62
2023-05-04T02:52:27.121Z,96.35
2023-05-04T02:54:53.516Z,96.73
2023-05-04T02:57:03.713Z,96.73
2023-05-04T02:57:19.981Z,96.01
2023-05-04T02:59:46.667Z,94.95
2023-05-04T03:02:03.698Z,94.95
2023-05-04T03:02:13.176Z,94.39
2023-05-04T03:04:39.645Z,94.39
2023-05-04T03:07:03.664Z,94.39
2023-05-04T03:07:06.595Z,95.26
2023-05-04T03:09:32.960Z,94.28
2023-05-04T03:11:59.303Z,94.53
2023-05-04T03:12:03.681Z,94.53
2023-05-04T03:14:26.300Z,95.29
2023-05-04T03:16:52.762Z,96.23
2023-05-04T03:17:03.687Z,96.23
2023-05-04T03:19:19.900Z,96.95
2023-05-04T03:21:46.579Z,96.82
2023-05-04T03:22:03.658Z,96.82
2023-05-04T03:24:13.327Z,97.68
2023-05-04T03:26:39.848Z,97.57
2023-05-04T03:27:03.686Z,97.57
2023-05-04T03:29:06.277Z,99.12
2023-05-04T03:31:32.679Z,99.12
2023-05-04T03:32:03.835Z,99.12
2023-05-04T03:33:59.070Z,99.06
2023-05-04T03:36:25.574Z,99.49
2023-05-04T03:37:03.690Z,99.49
2023-05-04T03:38:51.971Z,100.00
2023-05-04T03:41:18.440Z,100.00
2023-05-04T03:42:03.724Z,100.00
2023-05-04T03:43:44.852Z,100.00
2023-05-04T03:46:11.516Z,100.00
2023-05-04T03:47:03.660Z,100.00
2023-05-04T03:48:37.946Z,100.00
2023-05-04T03:51:04.622Z,100.00
2023-05-04T03:52:03.729Z,100.00
2023-05-04T03:53:31.041Z,100.00
2023-05-04T03:55:57.450Z,100.00
2023-05-04T03:57:03.666Z,100.00
2023-05-04T03:58:23.757Z,100.00
2023-05-04T04:00:50.084Z,100.00
2023-05-04T04:02:03.733Z,100.00
2023-05-04T04:03:16.689Z,100.00
2023-05-04T04:05:43.418Z,100.00
2023-05-04T04:07:03.659Z,100.00
2023-05-04T04:08:12.373Z,100.00
2023-05-04T04:10:38.719Z,100.00
2023-05-04T04:12:03.699Z,100.00
2023-05-04T04:13:05.187Z,100.00
2023-05-04T04:15:31.581Z,100.00
2023-05-04T04:17:03.677Z,100.00
2023-05-04T04:17:58.093Z,100.00
2023-05-04T04:20:24.491Z,100.00
2023-05-04T04:22:03.659Z,100.00
2023-05-04T04:22:51.931Z,100.00
2023-05-04T04:25:18.284Z,100.00
2023-05-04T04:27:03.676Z,100.00
2023-05-04T04:27:44.621Z,100.00
2023-05-04T04:30:12.180Z,100.00
2023-05-04T04:32:03.968Z,100.00
2023-05-04T04:32:38.654Z,100.00
2023-05-04T04:35:06.755Z,100.00
2023-05-04T04:37:03.644Z,100.00
2023-05-04T04:37:33.090Z,100.00
2023-05-04T04:39:59.448Z,100.00
2023-05-04T04:42:03.666Z,100.00
2023-05-04T04:42:26.189Z,100.00
2023-05-04T04:44:54.728Z,100.00
2023-05-04T04:47:03.795Z,100.00
2023-05-04T04:47:21.089Z,100.00
2023-05-04T04:49:47.712Z,99.48
2023-05-04T04:52:03.716Z,99.48
2023-05-04T04:52:14.203Z,98.33
2023-05-04T04:54:40.704Z,96.97
2023-05-04T04:57:03.694Z,96.97
2023-05-04T04:57:10.254Z,93.99
2023-05-04T04:59:38.086Z,91.52
2023-05-04T05:02:04.488Z,89.38
2023-05-04T05:02:04.676Z,89.38
2023-05-04T05:04:31.216Z,88.57
2023-05-04T05:06:57.660Z,86.77
2023-05-04T05:07:03.665Z,86.77
2023-05-04T05:09:24.145Z,85.99
2023-05-04T05:11:50.686Z,83.29
2023-05-04T05:12:03.683Z,83.29
2023-05-04T05:14:17.017Z,80.90
2023-05-04T05:16:43.479Z,78.00
2023-05-04T05:17:03.732Z,78.00
2023-05-04T05:19:09.881Z,75.05
2023-05-04T05:21:36.329Z,70.81
2023-05-04T05:22:03.702Z,70.81
2023-05-04T05:24:02.907Z,67.56
2023-05-04T05:26:29.464Z,63.05
2023-05-04T05:27:03.681Z,63.05
2023-05-04T05:28:56.011Z,62.16
2023-05-04T05:31:22.450Z,60.90
2023-05-04T05:32:04.849Z,60.90
2023-05-04T05:33:48.910Z,60.57
2023-05-04T05:36:15.311Z,60.38
2023-05-04T05:37:03.668Z,60.38
2023-05-04T05:38:41.849Z,59.70
2023-05-04T05:41:09.729Z,59.97
2023-05-04T05:42:03.714Z,59.97
2023-05-04T05:43:38.413Z,60.01
2023-05-04T05:46:06.458Z,59.72
2023-05-04T05:47:03.706Z,59.72
2023-05-04T05:48:33.749Z,59.70
2023-05-04T05:51:00.266Z,60.06
2023-05-04T05:52:03.707Z,60.06
2023-05-04T05:53:26.865Z,60.39
2023-05-04T05:55:53.265Z,59.53
2023-05-04T05:57:03.720Z,59.53
2023-05-04T05:58:19.631Z,59.95
2023-05-04T06:00:46.295Z,59.10
2023-05-04T06:02:03.690Z,59.10
2023-05-04T06:03:12.746Z,59.32
2023-05-04T06:05:39.178Z,59.46
2023-05-04T06:07:03.680Z,59.46
2023-05-04T06:08:05.637Z,59.01
2023-05-04T06:10:32.128Z,59.47
2023-05-04T06:12:03.722Z,59.47
2023-05-04T06:12:58.549Z,59.34
2023-05-04T06:15:24.932Z,59.53
2023-05-04T06:17:03.695Z,59.53
2023-05-04T06:17:51.420Z,59.32
2023-05-04T06:20:18.079Z,58.63
2023-05-04T06:22:03.700Z,58.63
2023-05-04T06:22:44.491Z,58.71
2023-05-04T06:25:11.508Z,58.98
2023-05-04T06:27:03.715Z,58.98
2023-05-04T06:27:37.891Z,58.50
2023-05-04T06:30:05.259Z,57.96
2023-05-04T06:32:03.779Z,57.96
2023-05-04T06:32:32.136Z,57.22
2023-05-04T06:34:59.433Z,58.02
2023-05-04T06:37:03.724Z,58.02
2023-05-04T06:37:26.674Z,57.77
2023-05-04T06:39:53.124Z,57.87
2023-05-04T06:42:03.719Z,57.87
2023-05-04T06:42:19.494Z,58.66
2023-05-04T06:44:45.951Z,56.88
2023-05-04T06:47:03.698Z,56.88
2023-05-04T06:47:12.482Z,57.73
2023-05-04T06:49:38.836Z,56.88
2023-05-04T06:52:03.688Z,56.88
2023-05-04T06:52:05.438Z,56.96
2023-05-04T06:54:32.463Z,56.60
2023-05-04T06:56:58.852Z,55.77
2023-05-04T06:57:03.855Z,55.77
2023-05-04T06:59:25.354Z,55.22
2023-05-04T07:01:51.746Z,55.35
2023-05-04T07:02:03.713Z,55.35
2023-05-04T07:04:21.634Z,54.50
2023-05-04T07:06:48.157Z,54.55
2023-05-04T07:07:03.735Z,54.55
2023-05-04T07:09:17.832Z,55.86
2023-05-04T07:11:44.269Z,55.17
2023-05-04T07:12:03.707Z,55.17
2023-05-04T07:14:11.391Z,54.13
2023-05-04T07:16:38.229Z,53.97
2023-05-04T07:17:03.708Z,53.97
2023-05-04T07:19:04.615Z,54.97
2023-05-04T07:21:31.478Z,54.25
2023-05-04T07:22:03.693Z,54.25
2023-05-04T07:23:57.864Z,52.84
2023-05-04T07:26:24.275Z,53.33
2023-05-04T07:27:03.690Z,53.33
2023-05-04T07:28:50.641Z,52.97
2023-05-04T07:31:17.115Z,52.08
2023-05-04T07:32:03.723Z,52.08
2023-05-04T07:33:43.578Z,52.71
2023-05-04T07:36:10.049Z,52.06
2023-05-04T07:37:03.753Z,52.06
2023-05-04T07:38:36.965Z,52.15
2023-05-04T07:41:03.402Z,52.09
2023-05-04T07:42:03.753Z,52.09
2023-05-04T07:43:29.892Z,51.72
2023-05-04T07:45:56.546Z,51.75
2023-05-04T07:47:03.686Z,51.75
2023-05-04T07:48:24.707Z,52.11
2023-05-04T07:50:53.689Z,51.52
2023-05-04T07:52:03.722Z,51.52
2023-05-04T07:53:20.804Z,51.35
2023-05-04T07:55:47.888Z,51.14
2023-05-04T07:57:03.737Z,51.14
2023-05-04T07:58:15.447Z,51.02
2023-05-04T08:00:41.908Z,50.91
2023-05-04T08:02:03.785Z,50.91
2023-05-04T08:03:08.424Z,50.54
2023-05-04T08:05:34.800Z,50.05
2023-05-04T08:07:03.740Z,50.05
2023-05-04T08:08:01.284Z,49.59
2023-05-04T08:10:29.086Z,50.08
2023-05-04T08:12:03.720Z,50.08
2023-05-04T08:12:55.577Z,50.15
2023-05-04T08:15:22.202Z,49.79
2023-05-04T08:17:03.700Z,49.79
2023-05-04T08:17:48.650Z,50.57
2023-05-04T08:20:15.227Z,49.80
2023-05-04T08:22:03.766Z,49.80
2023-05-04T08:22:41.604Z,48.43
2023-05-04T08:25:09.394Z,48.49
2023-05-04T08:27:07.861Z,48.49
2023-05-04T08:27:35.754Z,48.96
2023-05-04T08:30:02.118Z,48.55
2023-05-04T08:32:03.849Z,48.55
2023-05-04T08:32:29.974Z,48.34
2023-05-04T08:34:57.380Z,47.63
2023-05-04T08:37:03.770Z,47.63
2023-05-04T08:37:23.760Z,47.50
2023-05-04T08:39:50.762Z,47.38
2023-05-04T08:42:03.732Z,47.38
2023-05-04T08:42:31.166Z,47.48
2023-05-04T08:44:58.371Z,47.89
2023-05-04T08:47:03.739Z,47.89
2023-05-04T08:47:26.487Z,47.73
2023-05-04T08:49:57.000Z,47.62
2023-05-04T08:52:03.756Z,47.62
2023-05-04T08:52:24.691Z,47.67
2023-05-04T08:55:00.594Z,47.97
2023-05-04T08:57:03.735Z,47.97
2023-05-04T08:57:27.380Z,48.14
2023-05-04T08:59:55.471Z,48.10
2023-05-04T09:02:03.952Z,48.10
2023-05-04T09:02:24.078Z,47.48
2023-05-04T09:04:51.496Z,48.27
2023-05-04T09:07:03.721Z,48.27
2023-05-04T09:07:22.017Z,47.76
2023-05-04T09:09:50.880Z,47.27
2023-05-04T09:12:03.748Z,47.27
2023-05-04T09:12:18.089Z,47.13
2023-05-04T09:14:46.431Z,46.63
2023-05-04T09:17:03.847Z,46.63
2023-05-04T09:17:16.380Z,47.25
2023-05-04T09:19:45.923Z,46.55
2023-05-04T09:22:03.725Z,46.55
2023-05-04T09:22:17.234Z,47.40
2023-05-04T09:24:44.193Z,47.90
2023-05-04T09:27:03.733Z,47.90
2023-05-04T09:27:11.896Z,47.65
2023-05-04T09:29:40.418Z,46.99
2023-05-04T09:32:03.726Z,46.99
2023-05-04T09:32:12.250Z,46.50
2023-05-04T09:34:53.289Z,46.60
2023-05-04T09:37:03.853Z,46.60
2023-05-04T09:37:21.268Z,47.01
2023-05-04T09:40:00.137Z,47.34
2023-05-04T09:42:03.724Z,47.34
2023-05-04T09:42:26.967Z,47.36
2023-05-04T09:45:01.747Z,46.42
2023-05-04T09:47:03.733Z,46.42
2023-05-04T09:47:40.006Z,46.93
2023-05-04T09:50:20.338Z,45.42
2023-05-04T09:52:03.760Z,45.42
2023-05-04T09:52:48.718Z,46.33
2023-05-04T09:55:17.651Z,45.74
2023-05-04T09:57:03.755Z,45.74
2023-05-04T09:57:45.585Z,45.03
2023-05-04T10:00:14.118Z,45.00
2023-05-04T10:02:14.431Z,45.00
2023-05-04T10:02:40.711Z,45.01
2023-05-04T10:05:09.164Z,45.41
2023-05-04T10:07:03.724Z,45.41
2023-05-04T10:07:36.212Z,44.35
2023-05-04T10:10:03.539Z,43.83
2023-05-04T10:12:03.730Z,43.83
2023-05-04T10:12:30.001Z,44.22
2023-05-04T10:14:56.891Z,43.47
2023-05-04T10:17:03.722Z,43.47
2023-05-04T10:17:51.246Z,42.17
2023-05-04T10:20:29.944Z,42.06
2023-05-04T10:22:03.749Z,42.06
2023-05-04T10:23:12.819Z,42.29
2023-05-04T10:25:57.198Z,42.89
2023-05-04T10:27:03.764Z,42.89
2023-05-04T10:28:40.318Z,43.45
2023-05-04T10:31:09.241Z,42.80
2023-05-04T10:32:03.845Z,42.80
2023-05-04T10:33:40.484Z,42.21
2023-05-04T10:36:07.920Z,42.00
2023-05-04T10:37:03.840Z,42.00
2023-05-04T10:38:35.721Z,42.65
2023-05-04T10:41:14.414Z,41.72
2023-05-04T10:42:03.788Z,41.72
2023-05-04T10:43:42.402Z,42.20
2023-05-04T10:46:22.645Z,43.15
2023-05-04T10:47:03.739Z,43.15
2023-05-04T10:48:50.216Z,42.74
2023-05-04T10:51:32.667Z,41.59
2023-05-04T10:52:03.745Z,41.59
2023-05-04T10:54:02.231Z,40.72
2023-05-04T10:56:28.668Z,41.32
2023-05-04T10:57:03.802Z,41.32
2023-05-04T10:58:55.337Z,40.93
2023-05-04T11:01:24.292Z,41.87
2023-05-04T11:02:03.836Z,41.87
2023-05-04T11:03:52.416Z,40.33
2023-05-04T11:06:24.060Z,40.53
2023-05-04T11:07:03.743Z,40.53
2023-05-04T11:09:02.266Z,41.20
2023-05-04T11:11:28.921Z,41.62
2023-05-04T11:12:03.824Z,41.62
2023-05-04T11:13:56.632Z,41.44
2023-05-04T11:16:24.552Z,40.45
2023-05-04T11:17:05.372Z,40.45
2023-05-04T11:18:53.573Z,40.48
2023-05-04T11:21:27.097Z,41.08
2023-05-04T11:22:03.753Z,41.08
2023-05-04T11:24:00.390Z,40.04
2023-05-04T11:26:28.442Z,37.65
2023-05-04T11:27:03.722Z,37.65
2023-05-04T11:28:54.889Z,37.97
2023-05-04T11:31:21.486Z,37.29
2023-05-04T11:32:03.764Z,37.29
2023-05-04T11:33:48.601Z,36.34
2023-05-04T11:36:17.691Z,36.83
2023-05-04T11:37:03.860Z,36.83
2023-05-04T11:38:44.167Z,35.66
2023-05-04T11:41:12.562Z,36.62
2023-05-04T11:42:03.774Z,36.62
2023-05-04T11:43:42.222Z,36.51
2023-05-04T11:46:09.734Z,35.99
2023-05-04T11:47:03.761Z,35.99
2023-05-04T11:48:36.518Z,35.65
2023-05-04T11:51:04.298Z,35.15
2023-05-04T11:52:03.794Z,35.15
2023-05-04T11:53:41.106Z,35.29
2023-05-04T11:56:10.743Z,34.02
2023-05-04T11:57:03.768Z,34.02
2023-05-04T11:58:37.449Z,35.19
2023-05-04T12:01:04.793Z,34.64
2023-05-04T12:02:03.835Z,34.64
2023-05-04T12:03:50.993Z,34.80
2023-05-04T12:06:19.759Z,33.38
2023-05-04T12:07:03.751Z,33.38
2023-05-04T12:08:46.106Z,32.78
2023-05-04T12:11:25.330Z,34.46
2023-05-04T12:12:03.787Z,34.46
2023-05-04T12:14:11.872Z,33.73
2023-05-04T12:16:38.749Z,32.09
2023-05-04T12:17:03.759Z,32.09
2023-05-04T12:19:07.655Z,33.02
2023-05-04T12:21:35.205Z,34.09
2023-05-04T12:22:03.781Z,34.09
2023-05-04T12:24:03.288Z,33.18
2023-05-04T12:26:29.899Z,33.36
2023-05-04T12:27:03.760Z,33.36
2023-05-04T12:28:56.460Z,31.87
2023-05-04T12:31:25.406Z,32.86
2023-05-04T12:32:03.860Z,32.86
2023-05-04T12:33:52.217Z,32.88
2023-05-04T12:36:18.810Z,31.08
2023-05-04T12:37:03.777Z,31.08
2023-05-04T12:38:46.053Z,30.77
2023-05-04T12:41:12.614Z,31.06
2023-05-04T12:42:03.756Z,31.06
2023-05-04T12:43:39.066Z,31.00
2023-05-04T12:46:05.796Z,30.98
2023-05-04T12:47:03.757Z,30.98
2023-05-04T12:48:32.904Z,30.18
2023-05-04T12:51:00.869Z,31.56
2023-05-04T12:52:03.769Z,31.56
2023-05-04T12:53:29.846Z,30.50
2023-05-04T12:55:56.414Z,31.14
2023-05-04T12:57:03.794Z,31.14
2023-05-04T12:58:22.783Z,30.05
2023-05-04T13:00:49.475Z,30.47
2023-05-04T13:02:03.843Z,30.47
2023-05-04T13:03:17.886Z,30.08
2023-05-04T13:05:46.260Z,30.17
2023-05-04T13:07:03.800Z,30.17
2023-05-04T13:08:12.909Z,30.80
2023-05-04T13:10:41.969Z,30.29
2023-05-04T13:12:03.767Z,30.29
2023-05-04T13:13:08.520Z,30.00
2023-05-04T13:15:34.978Z,29.61
2023-05-04T13:17:03.769Z,29.61
2023-05-04T13:18:01.692Z,30.19
2023-05-04T13:20:28.134Z,30.69
2023-05-04T13:22:03.780Z,30.69
2023-05-04T13:22:58.221Z,30.35
2023-05-04T13:25:25.590Z,30.70
2023-05-04T13:27:03.781Z,30.70
2023-05-04T13:27:52.574Z,30.38
2023-05-04T13:30:20.510Z,29.77
2023-05-04T13:32:03.852Z,29.77
2023-05-04T13:32:46.947Z,31.61
2023-05-04T13:35:15.758Z,31.60
2023-05-04T13:37:03.874Z,31.60
2023-05-04T13:37:42.274Z,30.69
2023-05-04T13:40:09.445Z,31.08
2023-05-04T13:42:03.765Z,31.08
2023-05-04T13:42:37.322Z,30.79
2023-05-04T13:45:04.437Z,31.48
2023-05-04T13:47:03.888Z,31.48
2023-05-04T13:47:31.190Z,31.91
2023-05-04T13:49:57.916Z,30.95
2023-05-04T13:52:03.780Z,30.95
2023-05-04T13:52:24.399Z,32.52
2023-05-04T13:54:50.770Z,31.51
2023-05-04T13:57:03.762Z,31.51
2023-05-04T13:57:17.223Z,31.54
2023-05-04T13:59:54.634Z,31.45
2023-05-04T14:02:03.923Z,31.45
2023-05-04T14:02:25.072Z,31.12
2023-05-04T14:04:51.540Z,31.50
2023-05-04T14:07:03.785Z,31.50
2023-05-04T14:07:18.170Z,30.67
2023-05-04T14:09:44.614Z,30.07
2023-05-04T14:12:03.786Z,30.07
2023-05-04T14:12:11.036Z,31.29
2023-05-04T14:14:37.388Z,30.92
2023-05-04T14:17:04.095Z,31.53
2023-05-04T14:17:04.803Z,31.53
2023-05-04T14:19:30.510Z,31.01
2023-05-04T14:21:56.965Z,32.30
2023-05-04T14:22:03.763Z,32.30
2023-05-04T14:24:25.250Z,31.22
2023-05-04T14:26:51.792Z,31.03
2023-05-04T14:27:03.791Z,31.03
2023-05-04T14:29:18.185Z,31.82
2023-05-04T14:31:44.629Z,31.12
2023-05-04T14:32:03.941Z,31.12
2023-05-04T14:34:12.327Z,31.02
2023-05-04T14:36:38.674Z,30.08
2023-05-04T14:37:03.808Z,30.08
2023-05-04T14:39:05.149Z,30.04
2023-05-04T14:41:33.678Z,29.73
2023-05-04T14:42:06.216Z,29.73
2023-05-04T14:44:00.441Z,29.40
2023-05-04T14:46:29.322Z,28.81
2023-05-04T14:47:05.477Z,28.81
2023-05-04T14:48:56.214Z,28.48
2023-05-04T14:51:23.868Z,29.45
2023-05-04T14:52:03.828Z,29.45
2023-05-04T14:53:50.406Z,28.62
2023-05-04T14:56:16.791Z,29.23
2023-05-04T14:57:03.764Z,29.23
2023-05-04T14:58:43.723Z,28.66
2023-05-04T15:01:10.270Z,28.49
2023-05-04T15:02:03.916Z,28.49
2023-05-04T15:03:38.724Z,28.48
2023-05-04T15:06:06.272Z,28.67
2023-05-04T15:07:03.793Z,28.67
2023-05-04T15:08:32.733Z,29.79
2023-05-04T15:10:59.275Z,28.70
2023-05-04T15:12:03.799Z,28.70
2023-05-04T15:13:26.255Z,29.39
2023-05-04T15:15:52.978Z,28.77
2023-05-04T15:17:03.797Z,28.77
2023-05-04T15:18:21.119Z,29.16
2023-05-04T15:20:47.550Z,28.70
2023-05-04T15:22:03.834Z,28.70
2023-05-04T15:23:14.112Z,28.36
2023-05-04T15:25:41.066Z,27.72
2023-05-04T15:27:03.857Z,27.72
2023-05-04T15:28:11.168Z,29.01
2023-05-04T15:30:41.558Z,28.24
2023-05-04T15:32:03.831Z,28.24
2023-05-04T15:33:08.467Z,28.55
2023-05-04T15:35:36.363Z,28.32
2023-05-04T15:37:03.782Z,28.32
2023-05-04T15:38:03.408Z,28.92
2023-05-04T15:40:29.941Z,29.00
2023-05-04T15:42:03.893Z,29.00
2023-05-04T15:42:56.453Z,28.90
2023-05-04T15:45:23.053Z,29.76
2023-05-04T15:47:03.917Z,29.76
2023-05-04T15:47:49.528Z,29.05
2023-05-04T15:50:15.949Z,27.94
2023-05-04T15:52:03.810Z,27.94
2023-05-04T15:52:42.426Z,28.38
2023-05-04T15:55:24.401Z,28.41
2023-05-04T15:57:03.799Z,28.41
2023-05-04T15:57:53.736Z,28.39
2023-05-04T16:00:21.191Z,29.17
2023-05-04T16:02:03.915Z,29.17
2023-05-04T16:02:48.016Z,29.12
2023-05-04T16:05:14.565Z,29.35
2023-05-04T16:07:03.816Z,29.35
2023-05-04T16:07:40.950Z,29.71
2023-05-04T16:10:08.398Z,29.34
2023-05-04T16:12:03.810Z,29.34
2023-05-04T16:12:35.172Z,28.21
2023-05-04T16:15:01.691Z,28.78
2023-05-04T16:17:03.911Z,28.78
2023-05-04T16:17:29.033Z,28.22
2023-05-04T16:19:55.898Z,28.91
2023-05-04T16:22:03.818Z,28.91
2023-05-04T16:22:22.257Z,28.67
2023-05-04T16:24:48.796Z,28.81
2023-05-04T16:27:03.799Z,28.81
2023-05-04T16:27:15.330Z,28.17
2023-05-04T16:29:41.720Z,27.65
2023-05-04T16:32:03.906Z,27.65
2023-05-04T16:32:08.378Z,27.68
2023-05-04T16:34:37.460Z,28.00
2023-05-04T16:37:04.003Z,28.54
2023-05-04T16:37:04.160Z,28.54
2023-05-04T16:39:31.306Z,29.18
2023-05-04T16:41:58.546Z,29.13
2023-05-04T16:42:03.792Z,29.13
2023-05-04T16:44:27.406Z,29.32
2023-05-04T16:46:54.418Z,29.87
2023-05-04T16:47:03.792Z,29.87
2023-05-04T16:49:24.154Z,29.50
2023-05-04T16:51:56.044Z,30.10
2023-05-04T16:52:03.854Z,30.10
2023-05-04T16:54:24.269Z,30.72
2023-05-04T16:56:52.039Z,31.12
2023-05-04T16:57:03.846Z,31.12
2023-05-04T16:59:18.592Z,31.67
2023-05-04T17:01:47.525Z,31.19
2023-05-04T17:02:03.945Z,31.19
2023-05-04T17:04:13.984Z,31.82
2023-05-04T17:06:40.486Z,32.04
2023-05-04T17:07:03.785Z,32.04
2023-05-04T17:09:07.121Z,31.58
2023-05-04T17:11:34.568Z,32.17
2023-05-04T17:12:03.933Z,32.17
2023-05-04T17:14:01.356Z,32.73
2023-05-04T17:16:27.724Z,32.54
2023-05-04T17:17:03.805Z,32.54
2023-05-04T17:18:54.171Z,33.44
2023-05-04T17:21:20.754Z,33.10
2023-05-04T17:22:03.804Z,33.10
2023-05-04T17:23:47.247Z,32.95
2023-05-04T17:26:13.741Z,32.82
2023-05-04T17:27:03.835Z,32.82
2023-05-04T17:28:42.306Z,32.54
2023-05-04T17:31:24.235Z,33.48
2023-05-04T17:32:03.880Z,33.48
2023-05-04T17:33:50.806Z,33.48
2023-05-04T17:36:17.251Z,32.80
2023-05-04T17:37:03.852Z,32.80
2023-05-04T17:38:43.643Z,32.53
2023-05-04T17:41:10.361Z,33.49
2023-05-04T17:42:04.888Z,33.49
2023-05-04T17:43:37.124Z,33.23
2023-05-04T17:46:03.704Z,33.15
2023-05-04T17:47:05.558Z,33.15
2023-05-04T17:48:32.811Z,34.18
2023-05-04T17:50:59.992Z,33.83
2023-05-04T17:52:03.853Z,33.83
2023-05-04T17:53:29.722Z,34.03
2023-05-04T17:55:56.239Z,34.12
2023-05-04T17:57:03.807Z,34.12
2023-05-04T17:58:22.766Z,34.43
2023-05-04T18:00:52.007Z,35.17
2023-05-04T18:02:03.959Z,35.17
2023-05-04T18:03:19.644Z,35.48
2023-05-04T18:05:46.508Z,35.31
2023-05-04T18:07:03.836Z,35.31
2023-05-04T18:08:13.443Z,34.75
2023-05-04T18:10:40.366Z,35.08
2023-05-04T18:12:03.838Z,35.08
2023-05-04T18:13:06.732Z,35.72
2023-05-04T18:15:33.373Z,34.96
2023-05-04T18:17:03.830Z,34.96
2023-05-04T18:17:59.822Z,35.77
2023-05-04T18:20:26.516Z,35.76
2023-05-04T18:22:03.831Z,35.76
2023-05-04T18:22:52.883Z,35.35
2023-05-04T18:25:19.207Z,35.17
2023-05-04T18:27:03.818Z,35.17
2023-05-04T18:27:45.681Z,35.67
2023-05-04T18:30:12.259Z,36.15
2023-05-04T18:32:03.927Z,36.15
2023-05-04T18:32:38.927Z,35.70
2023-05-04T18:35:05.722Z,36.63
2023-05-04T18:37:03.824Z,36.63
2023-05-04T18:37:32.345Z,36.34
2023-05-04T18:39:59.254Z,36.76
2023-05-04T18:42:03.817Z,36.76
2023-05-04T18:42:26.012Z,37.13
2023-05-04T18:44:53.200Z,37.29
2023-05-04T18:47:03.925Z,37.29
2023-05-04T18:47:19.992Z,37.72
2023-05-04T18:49:51.108Z,38.33
2023-05-04T18:52:03.833Z,38.33
2023-05-04T18:52:18.028Z,38.38
2023-05-04T18:54:44.345Z,38.79
2023-05-04T18:57:03.833Z,38.79
2023-05-04T18:57:11.093Z,39.09
2023-05-04T18:59:37.728Z,39.68
2023-05-04T19:02:04.222Z,40.13
2023-05-04T19:02:04.902Z,40.13
2023-05-04T19:04:30.638Z,40.76
2023-05-04T19:07:00.031Z,40.74
2023-05-04T19:07:03.813Z,40.74
2023-05-04T19:09:26.364Z,41.30
2023-05-04T19:11:52.745Z,41.29
2023-05-04T19:12:03.851Z,41.29
2023-05-04T19:14:19.372Z,41.98
2023-05-04T19:16:45.732Z,42.52
2023-05-04T19:17:03.844Z,42.52
2023-05-04T19:19:12.122Z,42.58
2023-05-04T19:21:39.399Z,42.70
2023-05-04T19:22:03.841Z,42.70
2023-05-04T19:24:06.866Z,43.08
2023-05-04T19:26:33.467Z,43.41
2023-05-04T19:27:03.824Z,43.41
2023-05-04T19:28:59.784Z,43.52
2023-05-04T19:31:26.319Z,43.75
2023-05-04T19:32:15.872Z,43.75
2023-05-04T19:33:53.314Z,44.20
2023-05-04T19:36:19.799Z,44.12
2023-05-04T19:37:03.828Z,44.12
2023-05-04T19:38:46.178Z,44.71
2023-05-04T19:41:13.902Z,44.67
2023-05-04T19:42:03.813Z,44.67
2023-05-04T19:43:40.923Z,45.48
2023-05-04T19:46:08.021Z,45.01
2023-05-04T19:47:04.004Z,45.01
2023-05-04T19:48:34.460Z,45.54
2023-05-04T19:51:01.098Z,45.76
2023-05-04T19:52:03.846Z,45.76
2023-05-04T19:53:27.556Z,46.19
2023-05-04T19:55:54.024Z,46.17
2023-05-04T19:57:03.903Z,46.17
2023-05-04T19:58:21.937Z,46.34
2023-05-04T20:00:48.758Z,46.73
2023-05-04T20:02:03.906Z,46.73
2023-05-04T20:03:17.007Z,46.87
2023-05-04T20:05:43.619Z,47.21
2023-05-04T20:07:03.838Z,47.21
2023-05-04T20:08:11.097Z,47.42
2023-05-04T20:10:37.556Z,47.33
2023-05-04T20:12:03.824Z,47.33
2023-05-04T20:13:04.119Z,47.35
2023-05-04T20:15:30.595Z,47.75
2023-05-04T20:17:03.916Z,47.75
2023-05-04T20:17:57.766Z,48.24
2023-05-04T20:20:24.295Z,48.68
2023-05-04T20:22:03.869Z,48.68
2023-05-04T20:22:52.190Z,47.94
2023-05-04T20:25:19.805Z,48.74
2023-05-04T20:27:03.887Z,48.74
2023-05-04T20:27:48.574Z,48.52
2023-05-04T20:30:15.406Z,48.76
2023-05-04T20:32:03.842Z,48.76
2023-05-04T20:32:42.628Z,48.29
2023-05-04T20:35:09.578Z,48.08
2023-05-04T20:37:03.856Z,48.08
2023-05-04T20:37:36.213Z,48.66
2023-05-04T20:40:02.773Z,48.86
2023-05-04T20:42:03.835Z,48.86
2023-05-04T20:42:29.358Z,48.87
2023-05-04T20:44:55.810Z,49.01
2023-05-04T20:47:03.814Z,49.01
2023-05-04T20:47:22.385Z,49.37
2023-05-04T20:49:48.889Z,49.13
2023-05-04T20:52:03.853Z,49.13
2023-05-04T20:52:15.267Z,49.68
2023-05-04T20:54:41.782Z,49.93
2023-05-04T20:57:03.954Z,49.93
2023-05-04T20:57:08.732Z,49.64
2023-05-04T20:59:35.121Z,50.09
2023-05-04T21:02:01.610Z,49.79
2023-05-04T21:02:03.988Z,49.79
2023-05-04T21:04:28.037Z,49.63
2023-05-04T21:06:54.425Z,50.26
2023-05-04T21:07:03.929Z,50.26
2023-05-04T21:09:21.529Z,50.24
2023-05-04T21:11:48.151Z,49.97
2023-05-04T21:12:04.097Z,49.97